sensor_id;sensor_type;location;lat;lon;timestamp;P1;durP1;ratioP1;P2;durP2;ratioP2
54923;SDS011;40825;52.270;20.984;2023-03-19T00:01:57;19.80;;;9.00;;
54923;SDS011;40825;52.270;20.984;2023-03-19T00:04:24;22.90;;;9.70;;
54923;SDS011;40825;52.270;20.984;2023-03-19T00:06:50;26.40;;;11.10;;
54923;SDS011;40825;52.270;20.984;2023-03-19T00:09:16;24.80;;;10.00;;
54923;SDS011;40825;52.270;20.984;2023-03-19T00:11:43;22.10;;;11.00;;
54923;SDS011;40825;52.270;20.984;2023-03-19T00:14:09;22.20;;;10.50;;
54923;SDS011;40825;52.270;20.984;2023-03-19T00:16:35;22.20;;;10.80;;
54923;SDS011;40825;52.270;20.984;2023-03-19T00:19:01;27.00;;;11.20;;
54923;SDS011;40825;52.270;20.984;2023-03-19T00:21:28;20.70;;;10.10;;
54923;SDS011;40825;52.270;20.984;2023-03-19T00:23:54;24.90;;;11.90;;
54923;SDS011;40825;52.270;20.984;2023-03-19T00:26:26;24.30;;;10.50;;
54923;SDS011;40825;52.270;20.984;2023-03-19T00:28:54;23.20;;;9.60;;
54923;SDS011;40825;52.270;20.984;2023-03-19T00:31:20;24.40;;;11.50;;
54923;SDS011;40825;52.270;20.984;2023-03-19T00:33:47;22.00;;;10.10;;
54923;SDS011;40825;52.270;20.984;2023-03-19T00:36:12;19.00;;;9.10;;
54923;SDS011;40825;52.270;20.984;2023-03-19T00:38:40;22.90;;;10.30;;
54923;SDS011;40825;52.270;20.984;2023-03-19T00:41:05;22.60;;;11.30;;
54923;SDS011;40825;52.270;20.984;2023-03-19T00:43:31;22.40;;;10.00;;
54923;SDS011;40825;52.270;20.984;2023-03-19T00:45:57;20.50;;;9.50;;
54923;SDS011;40825;52.270;20.984;2023-03-19T00:48:25;23.60;;;10.00;;
54923;SDS011;40825;52.270;20.984;2023-03-19T00:50:50;24.80;;;10.80;;
54923;SDS011;40825;52.270;20.984;2023-03-19T00:53:16;21.40;;;9.50;;
54923;SDS011;40825;52.270;20.984;2023-03-19T00:55:42;23.50;;;10.10;;
54923;SDS011;40825;52.270;20.984;2023-03-19T00:58:07;22.10;;;9.20;;
54923;SDS011;40825;52.270;20.984;2023-03-19T01:00:34;20.10;;;8.70;;
54923;SDS011;40825;52.270;20.984;2023-03-19T01:03:01;20.90;;;8.80;;
54923;SDS011;40825;52.270;20.984;2023-03-19T01:05:28;23.10;;;10.70;;
54923;SDS011;40825;52.270;20.984;2023-03-19T01:07:55;21.30;;;9.50;;
54923;SDS011;40825;52.270;20.984;2023-03-19T01:10:21;22.70;;;9.50;;
54923;SDS011;40825;52.270;20.984;2023-03-19T01:12:48;22.40;;;9.60;;
54923;SDS011;40825;52.270;20.984;2023-03-19T01:15:14;24.70;;;10.30;;
54923;SDS011;40825;52.270;20.984;2023-03-19T01:17:40;23.00;;;10.20;;
54923;SDS011;40825;52.270;20.984;2023-03-19T01:20:06;24.00;;;9.70;;
54923;SDS011;40825;52.270;20.984;2023-03-19T01:22:40;23.00;;;11.00;;
54923;SDS011;40825;52.270;20.984;2023-03-19T01:25:07;19.90;;;10.10;;
54923;SDS011;40825;52.270;20.984;2023-03-19T01:27:34;20.30;;;9.10;;
54923;SDS011;40825;52.270;20.984;2023-03-19T01:30:00;23.00;;;9.80;;
54923;SDS011;40825;52.270;20.984;2023-03-19T01:32:26;23.00;;;9.40;;
54923;SDS011;40825;52.270;20.984;2023-03-19T01:34:52;23.20;;;9.40;;
54923;SDS011;40825;52.270;20.984;2023-03-19T01:37:18;22.30;;;10.50;;
54923;SDS011;40825;52.270;20.984;2023-03-19T01:39:44;22.80;;;10.20;;
54923;SDS011;40825;52.270;20.984;2023-03-19T01:42:10;20.50;;;9.10;;
54923;SDS011;40825;52.270;20.984;2023-03-19T01:44:36;21.20;;;10.10;;
54923;SDS011;40825;52.270;20.984;2023-03-19T01:47:04;26.80;;;9.70;;
54923;SDS011;40825;52.270;20.984;2023-03-19T01:49:35;22.20;;;9.80;;
54923;SDS011;40825;52.270;20.984;2023-03-19T01:52:02;23.40;;;10.60;;
54923;SDS011;40825;52.270;20.984;2023-03-19T01:54:29;24.20;;;10.40;;
54923;SDS011;40825;52.270;20.984;2023-03-19T01:57:04;24.90;;;11.80;;
54923;SDS011;40825;52.270;20.984;2023-03-19T01:59:37;23.10;;;9.60;;
54923;SDS011;40825;52.270;20.984;2023-03-19T02:02:33;22.20;;;11.30;;
54923;SDS011;40825;52.270;20.984;2023-03-19T02:07:36;23.70;;;10.00;;
54923;SDS011;40825;52.270;20.984;2023-03-19T02:10:04;23.90;;;11.40;;
54923;SDS011;40825;52.270;20.984;2023-03-19T02:12:32;22.50;;;9.40;;
54923;SDS011;40825;52.270;20.984;2023-03-19T02:14:58;20.00;;;10.10;;
54923;SDS011;40825;52.270;20.984;2023-03-19T02:17:24;24.30;;;10.20;;
54923;SDS011;40825;52.270;20.984;2023-03-19T02:22:38;22.50;;;9.30;;
54923;SDS011;40825;52.270;20.984;2023-03-19T02:27:39;24.70;;;11.00;;
54923;SDS011;40825;52.270;20.984;2023-03-19T02:32:47;22.80;;;10.20;;
54923;SDS011;40825;52.270;20.984;2023-03-19T02:35:12;22.10;;;10.10;;
54923;SDS011;40825;52.270;20.984;2023-03-19T02:37:38;23.70;;;10.80;;
54923;SDS011;40825;52.270;20.984;2023-03-19T02:40:07;22.90;;;9.70;;
54923;SDS011;40825;52.270;20.984;2023-03-19T02:42:35;22.30;;;9.70;;
54923;SDS011;40825;52.270;20.984;2023-03-19T02:45:02;21.20;;;10.50;;
54923;SDS011;40825;52.270;20.984;2023-03-19T02:47:28;21.90;;;10.20;;
54923;SDS011;40825;52.270;20.984;2023-03-19T02:49:53;23.10;;;9.70;;
54923;SDS011;40825;52.270;20.984;2023-03-19T02:52:19;19.90;;;10.00;;
54923;SDS011;40825;52.270;20.984;2023-03-19T02:54:45;23.50;;;9.80;;
54923;SDS011;40825;52.270;20.984;2023-03-19T02:57:11;26.40;;;10.90;;
54923;SDS011;40825;52.270;20.984;2023-03-19T02:59:37;16.70;;;7.70;;
54923;SDS011;40825;52.270;20.984;2023-03-19T03:02:03;21.40;;;10.40;;
54923;SDS011;40825;52.270;20.984;2023-03-19T03:04:29;22.70;;;9.90;;
54923;SDS011;40825;52.270;20.984;2023-03-19T03:06:56;25.60;;;11.80;;
54923;SDS011;40825;52.270;20.984;2023-03-19T03:09:21;22.10;;;10.20;;
54923;SDS011;40825;52.270;20.984;2023-03-19T03:11:47;20.50;;;9.80;;
54923;SDS011;40825;52.270;20.984;2023-03-19T03:14:13;22.10;;;10.00;;
54923;SDS011;40825;52.270;20.984;2023-03-19T03:16:38;23.00;;;9.80;;
54923;SDS011;40825;52.270;20.984;2023-03-19T03:19:04;24.30;;;9.90;;
54923;SDS011;40825;52.270;20.984;2023-03-19T03:21:30;29.80;;;10.80;;
54923;SDS011;40825;52.270;20.984;2023-03-19T03:23:56;20.30;;;10.30;;
54923;SDS011;40825;52.270;20.984;2023-03-19T03:26:21;21.70;;;10.40;;
54923;SDS011;40825;52.270;20.984;2023-03-19T03:28:47;25.50;;;11.80;;
54923;SDS011;40825;52.270;20.984;2023-03-19T03:31:12;22.50;;;9.70;;
54923;SDS011;40825;52.270;20.984;2023-03-19T03:33:38;24.30;;;10.20;;
54923;SDS011;40825;52.270;20.984;2023-03-19T03:36:04;23.40;;;10.30;;
54923;SDS011;40825;52.270;20.984;2023-03-19T03:38:31;24.30;;;10.80;;
54923;SDS011;40825;52.270;20.984;2023-03-19T03:40:57;21.40;;;10.40;;
54923;SDS011;40825;52.270;20.984;2023-03-19T03:43:23;25.60;;;11.30;;
54923;SDS011;40825;52.270;20.984;2023-03-19T03:45:49;21.50;;;9.80;;
54923;SDS011;40825;52.270;20.984;2023-03-19T03:48:15;21.90;;;9.80;;
54923;SDS011;40825;52.270;20.984;2023-03-19T03:50:41;23.50;;;11.20;;
54923;SDS011;40825;52.270;20.984;2023-03-19T03:53:07;20.50;;;9.80;;
54923;SDS011;40825;52.270;20.984;2023-03-19T03:55:33;24.40;;;10.70;;
54923;SDS011;40825;52.270;20.984;2023-03-19T03:57:58;25.60;;;12.20;;
54923;SDS011;40825;52.270;20.984;2023-03-19T04:00:25;20.40;;;9.90;;
54923;SDS011;40825;52.270;20.984;2023-03-19T04:02:51;21.00;;;9.70;;
54923;SDS011;40825;52.270;20.984;2023-03-19T04:05:17;26.80;;;11.80;;
54923;SDS011;40825;52.270;20.984;2023-03-19T04:07:43;22.70;;;9.50;;
54923;SDS011;40825;52.270;20.984;2023-03-19T04:10:11;24.60;;;11.00;;
54923;SDS011;40825;52.270;20.984;2023-03-19T04:12:38;22.30;;;10.10;;
54923;SDS011;40825;52.270;20.984;2023-03-19T04:15:06;22.30;;;10.10;;
54923;SDS011;40825;52.270;20.984;2023-03-19T04:17:33;21.40;;;9.50;;
54923;SDS011;40825;52.270;20.984;2023-03-19T04:20:00;24.80;;;10.30;;
54923;SDS011;40825;52.270;20.984;2023-03-19T04:22:26;20.00;;;11.10;;
54923;SDS011;40825;52.270;20.984;2023-03-19T04:24:52;22.30;;;10.80;;
54923;SDS011;40825;52.270;20.984;2023-03-19T04:27:18;21.30;;;10.50;;
54923;SDS011;40825;52.270;20.984;2023-03-19T04:29:44;21.90;;;10.50;;
54923;SDS011;40825;52.270;20.984;2023-03-19T04:32:09;24.50;;;11.20;;
54923;SDS011;40825;52.270;20.984;2023-03-19T04:34:35;24.60;;;11.80;;
54923;SDS011;40825;52.270;20.984;2023-03-19T04:37:01;24.50;;;11.50;;
54923;SDS011;40825;52.270;20.984;2023-03-19T04:39:27;22.40;;;10.30;;
54923;SDS011;40825;52.270;20.984;2023-03-19T04:41:53;24.00;;;12.00;;
54923;SDS011;40825;52.270;20.984;2023-03-19T04:44:20;23.80;;;11.60;;
54923;SDS011;40825;52.270;20.984;2023-03-19T04:46:46;20.00;;;9.90;;
54923;SDS011;40825;52.270;20.984;2023-03-19T04:49:11;20.90;;;9.00;;
54923;SDS011;40825;52.270;20.984;2023-03-19T04:51:37;20.90;;;9.70;;
54923;SDS011;40825;52.270;20.984;2023-03-19T04:54:03;21.50;;;9.70;;
54923;SDS011;40825;52.270;20.984;2023-03-19T04:56:29;23.40;;;9.80;;
54923;SDS011;40825;52.270;20.984;2023-03-19T04:58:55;23.50;;;10.80;;
54923;SDS011;40825;52.270;20.984;2023-03-19T05:01:21;21.70;;;9.80;;
54923;SDS011;40825;52.270;20.984;2023-03-19T05:03:46;23.80;;;10.90;;
54923;SDS011;40825;52.270;20.984;2023-03-19T05:06:12;23.90;;;9.80;;
54923;SDS011;40825;52.270;20.984;2023-03-19T05:08:37;25.00;;;12.60;;
54923;SDS011;40825;52.270;20.984;2023-03-19T05:11:03;25.10;;;11.40;;
54923;SDS011;40825;52.270;20.984;2023-03-19T05:13:28;21.70;;;11.30;;
54923;SDS011;40825;52.270;20.984;2023-03-19T05:15:54;21.20;;;10.00;;
54923;SDS011;40825;52.270;20.984;2023-03-19T05:18:20;22.70;;;10.30;;
54923;SDS011;40825;52.270;20.984;2023-03-19T05:20:46;25.40;;;10.40;;
54923;SDS011;40825;52.270;20.984;2023-03-19T05:23:13;24.60;;;9.70;;
54923;SDS011;40825;52.270;20.984;2023-03-19T05:25:38;21.70;;;9.60;;
54923;SDS011;40825;52.270;20.984;2023-03-19T05:28:04;23.60;;;10.10;;
54923;SDS011;40825;52.270;20.984;2023-03-19T05:30:31;20.10;;;9.60;;
54923;SDS011;40825;52.270;20.984;2023-03-19T05:32:58;21.10;;;10.50;;
54923;SDS011;40825;52.270;20.984;2023-03-19T05:35:25;22.50;;;10.30;;
54923;SDS011;40825;52.270;20.984;2023-03-19T05:37:53;20.40;;;9.30;;
54923;SDS011;40825;52.270;20.984;2023-03-19T05:40:19;21.40;;;9.90;;
54923;SDS011;40825;52.270;20.984;2023-03-19T05:42:44;20.00;;;8.70;;
54923;SDS011;40825;52.270;20.984;2023-03-19T05:45:10;21.60;;;10.30;;
54923;SDS011;40825;52.270;20.984;2023-03-19T05:47:36;19.80;;;8.90;;
54923;SDS011;40825;52.270;20.984;2023-03-19T05:50:02;19.70;;;9.50;;
54923;SDS011;40825;52.270;20.984;2023-03-19T05:52:28;23.50;;;9.90;;
54923;SDS011;40825;52.270;20.984;2023-03-19T05:54:53;21.10;;;10.00;;
54923;SDS011;40825;52.270;20.984;2023-03-19T05:57:19;23.40;;;11.00;;
54923;SDS011;40825;52.270;20.984;2023-03-19T05:59:44;22.30;;;8.90;;
54923;SDS011;40825;52.270;20.984;2023-03-19T06:02:10;20.80;;;9.40;;
54923;SDS011;40825;52.270;20.984;2023-03-19T06:04:35;23.40;;;9.80;;
54923;SDS011;40825;52.270;20.984;2023-03-19T06:07:01;21.40;;;9.60;;
54923;SDS011;40825;52.270;20.984;2023-03-19T06:09:28;22.20;;;9.70;;
54923;SDS011;40825;52.270;20.984;2023-03-19T06:11:53;18.40;;;9.50;;
54923;SDS011;40825;52.270;20.984;2023-03-19T06:14:19;25.10;;;11.40;;
54923;SDS011;40825;52.270;20.984;2023-03-19T06:16:45;20.60;;;10.00;;
54923;SDS011;40825;52.270;20.984;2023-03-19T06:19:10;21.60;;;10.40;;
54923;SDS011;40825;52.270;20.984;2023-03-19T06:21:36;22.20;;;11.10;;
54923;SDS011;40825;52.270;20.984;2023-03-19T06:24:01;23.40;;;10.20;;
54923;SDS011;40825;52.270;20.984;2023-03-19T06:26:27;20.30;;;10.50;;
54923;SDS011;40825;52.270;20.984;2023-03-19T06:28:52;22.70;;;9.00;;
54923;SDS011;40825;52.270;20.984;2023-03-19T06:31:18;25.80;;;11.20;;
54923;SDS011;40825;52.270;20.984;2023-03-19T06:33:44;22.10;;;10.20;;
54923;SDS011;40825;52.270;20.984;2023-03-19T06:36:09;23.00;;;10.90;;
54923;SDS011;40825;52.270;20.984;2023-03-19T06:38:35;22.60;;;10.40;;
54923;SDS011;40825;52.270;20.984;2023-03-19T06:41:01;23.20;;;10.60;;
54923;SDS011;40825;52.270;20.984;2023-03-19T06:43:28;20.00;;;10.60;;
54923;SDS011;40825;52.270;20.984;2023-03-19T06:45:54;22.90;;;11.00;;
54923;SDS011;40825;52.270;20.984;2023-03-19T06:48:19;20.40;;;10.60;;
54923;SDS011;40825;52.270;20.984;2023-03-19T06:50:45;22.60;;;10.20;;
54923;SDS011;40825;52.270;20.984;2023-03-19T06:53:11;20.20;;;10.00;;
54923;SDS011;40825;52.270;20.984;2023-03-19T06:55:38;20.30;;;11.20;;
54923;SDS011;40825;52.270;20.984;2023-03-19T06:58:04;19.20;;;10.90;;
54923;SDS011;40825;52.270;20.984;2023-03-19T07:00:31;26.80;;;11.90;;
54923;SDS011;40825;52.270;20.984;2023-03-19T07:02:57;22.80;;;11.70;;
54923;SDS011;40825;52.270;20.984;2023-03-19T07:05:23;24.00;;;10.70;;
54923;SDS011;40825;52.270;20.984;2023-03-19T07:07:49;20.80;;;10.40;;
54923;SDS011;40825;52.270;20.984;2023-03-19T07:10:17;24.20;;;11.40;;
54923;SDS011;40825;52.270;20.984;2023-03-19T07:12:46;21.00;;;11.50;;
54923;SDS011;40825;52.270;20.984;2023-03-19T07:15:11;20.80;;;10.50;;
54923;SDS011;40825;52.270;20.984;2023-03-19T07:17:37;22.00;;;10.30;;
54923;SDS011;40825;52.270;20.984;2023-03-19T07:20:02;19.00;;;10.70;;
54923;SDS011;40825;52.270;20.984;2023-03-19T07:22:28;20.70;;;10.20;;
54923;SDS011;40825;52.270;20.984;2023-03-19T07:24:54;22.80;;;11.00;;
54923;SDS011;40825;52.270;20.984;2023-03-19T07:27:19;21.40;;;10.70;;
54923;SDS011;40825;52.270;20.984;2023-03-19T07:29:46;21.80;;;11.30;;
54923;SDS011;40825;52.270;20.984;2023-03-19T07:32:11;20.60;;;10.30;;
54923;SDS011;40825;52.270;20.984;2023-03-19T07:34:37;21.20;;;10.90;;
54923;SDS011;40825;52.270;20.984;2023-03-19T07:37:03;19.60;;;9.70;;
54923;SDS011;40825;52.270;20.984;2023-03-19T07:39:28;22.40;;;11.50;;
54923;SDS011;40825;52.270;20.984;2023-03-19T07:41:54;18.80;;;9.80;;
54923;SDS011;40825;52.270;20.984;2023-03-19T07:44:19;19.10;;;9.60;;
54923;SDS011;40825;52.270;20.984;2023-03-19T07:46:45;19.40;;;10.30;;
54923;SDS011;40825;52.270;20.984;2023-03-19T07:49:10;18.10;;;9.70;;
54923;SDS011;40825;52.270;20.984;2023-03-19T07:51:36;21.40;;;10.10;;
54923;SDS011;40825;52.270;20.984;2023-03-19T07:54:01;19.00;;;9.50;;
54923;SDS011;40825;52.270;20.984;2023-03-19T07:56:27;19.50;;;10.20;;
54923;SDS011;40825;52.270;20.984;2023-03-19T07:58:52;21.70;;;9.80;;
54923;SDS011;40825;52.270;20.984;2023-03-19T08:01:17;19.00;;;9.50;;
54923;SDS011;40825;52.270;20.984;2023-03-19T08:03:43;20.30;;;12.50;;
54923;SDS011;40825;52.270;20.984;2023-03-19T08:06:09;20.60;;;10.60;;
54923;SDS011;40825;52.270;20.984;2023-03-19T08:08:35;21.20;;;10.20;;
54923;SDS011;40825;52.270;20.984;2023-03-19T08:11:01;21.40;;;11.10;;
54923;SDS011;40825;52.270;20.984;2023-03-19T08:13:27;19.80;;;10.00;;
54923;SDS011;40825;52.270;20.984;2023-03-19T08:15:52;21.30;;;10.60;;
54923;SDS011;40825;52.270;20.984;2023-03-19T08:18:20;21.80;;;9.90;;
54923;SDS011;40825;52.270;20.984;2023-03-19T08:20:46;18.70;;;9.40;;
54923;SDS011;40825;52.270;20.984;2023-03-19T08:23:12;20.70;;;10.20;;
54923;SDS011;40825;52.270;20.984;2023-03-19T08:25:39;19.40;;;10.20;;
54923;SDS011;40825;52.270;20.984;2023-03-19T08:28:05;19.80;;;9.70;;
54923;SDS011;40825;52.270;20.984;2023-03-19T08:30:31;20.50;;;10.70;;
54923;SDS011;40825;52.270;20.984;2023-03-19T08:32:56;19.30;;;10.00;;
54923;SDS011;40825;52.270;20.984;2023-03-19T08:35:22;20.00;;;10.60;;
54923;SDS011;40825;52.270;20.984;2023-03-19T08:37:51;20.70;;;10.30;;
54923;SDS011;40825;52.270;20.984;2023-03-19T08:40:18;20.90;;;10.10;;
54923;SDS011;40825;52.270;20.984;2023-03-19T08:42:44;18.20;;;10.20;;
54923;SDS011;40825;52.270;20.984;2023-03-19T08:45:10;19.90;;;10.00;;
54923;SDS011;40825;52.270;20.984;2023-03-19T08:47:37;18.90;;;10.70;;
54923;SDS011;40825;52.270;20.984;2023-03-19T08:50:04;22.10;;;11.10;;
54923;SDS011;40825;52.270;20.984;2023-03-19T08:52:30;18.20;;;9.50;;
54923;SDS011;40825;52.270;20.984;2023-03-19T08:54:56;21.30;;;10.90;;
54923;SDS011;40825;52.270;20.984;2023-03-19T08:57:21;21.30;;;11.40;;
54923;SDS011;40825;52.270;20.984;2023-03-19T08:59:47;20.30;;;10.60;;
54923;SDS011;40825;52.270;20.984;2023-03-19T09:02:12;19.70;;;10.40;;
54923;SDS011;40825;52.270;20.984;2023-03-19T09:04:41;20.50;;;10.50;;
54923;SDS011;40825;52.270;20.984;2023-03-19T09:07:08;20.00;;;9.70;;
54923;SDS011;40825;52.270;20.984;2023-03-19T09:09:38;19.80;;;10.40;;
54923;SDS011;40825;52.270;20.984;2023-03-19T09:12:05;19.50;;;9.50;;
54923;SDS011;40825;52.270;20.984;2023-03-19T09:14:32;20.10;;;10.90;;
54923;SDS011;40825;52.270;20.984;2023-03-19T09:16:58;19.10;;;10.40;;
54923;SDS011;40825;52.270;20.984;2023-03-19T09:19:24;17.40;;;9.80;;
54923;SDS011;40825;52.270;20.984;2023-03-19T09:21:50;20.30;;;10.00;;
54923;SDS011;40825;52.270;20.984;2023-03-19T09:24:16;19.20;;;9.60;;
54923;SDS011;40825;52.270;20.984;2023-03-19T09:26:42;17.70;;;10.20;;
54923;SDS011;40825;52.270;20.984;2023-03-19T09:29:08;18.10;;;8.60;;
54923;SDS011;40825;52.270;20.984;2023-03-19T09:31:34;16.40;;;9.10;;
54923;SDS011;40825;52.270;20.984;2023-03-19T09:34:01;17.10;;;8.60;;
54923;SDS011;40825;52.270;20.984;2023-03-19T09:36:27;18.90;;;9.50;;
54923;SDS011;40825;52.270;20.984;2023-03-19T09:38:52;17.40;;;8.60;;
54923;SDS011;40825;52.270;20.984;2023-03-19T09:49:12;16.20;;;8.20;;
54923;SDS011;40825;52.270;20.984;2023-03-19T09:51:41;16.20;;;8.10;;
54923;SDS011;40825;52.270;20.984;2023-03-19T09:56:57;13.40;;;7.30;;
54923;SDS011;40825;52.270;20.984;2023-03-19T09:59:24;17.00;;;7.60;;
54923;SDS011;40825;52.270;20.984;2023-03-19T10:01:55;16.40;;;7.60;;
54923;SDS011;40825;52.270;20.984;2023-03-19T10:07:04;14.00;;;6.80;;
54923;SDS011;40825;52.270;20.984;2023-03-19T10:12:54;14.40;;;6.90;;
54923;SDS011;40825;52.270;20.984;2023-03-19T10:15:27;15.60;;;7.30;;
54923;SDS011;40825;52.270;20.984;2023-03-19T10:18:02;15.50;;;7.60;;
54923;SDS011;40825;52.270;20.984;2023-03-19T10:20:34;15.80;;;8.50;;
54923;SDS011;40825;52.270;20.984;2023-03-19T10:23:25;14.50;;;6.80;;
54923;SDS011;40825;52.270;20.984;2023-03-19T10:26:15;13.70;;;6.70;;
54923;SDS011;40825;52.270;20.984;2023-03-19T10:28:44;13.40;;;6.90;;
54923;SDS011;40825;52.270;20.984;2023-03-19T10:33:49;13.80;;;6.70;;
54923;SDS011;40825;52.270;20.984;2023-03-19T10:36:30;14.20;;;7.40;;
54923;SDS011;40825;52.270;20.984;2023-03-19T10:38:59;15.10;;;8.40;;
54923;SDS011;40825;52.270;20.984;2023-03-19T10:46:58;15.10;;;7.10;;
54923;SDS011;40825;52.270;20.984;2023-03-19T10:49:33;16.00;;;8.30;;
54923;SDS011;40825;52.270;20.984;2023-03-19T10:52:00;14.40;;;8.90;;
54923;SDS011;40825;52.270;20.984;2023-03-19T10:54:26;13.80;;;7.30;;
54923;SDS011;40825;52.270;20.984;2023-03-19T10:56:55;13.90;;;6.90;;
54923;SDS011;40825;52.270;20.984;2023-03-19T10:59:30;12.10;;;6.60;;
54923;SDS011;40825;52.270;20.984;2023-03-19T11:02:15;11.80;;;5.70;;
54923;SDS011;40825;52.270;20.984;2023-03-19T11:04:43;12.60;;;7.30;;
54923;SDS011;40825;52.270;20.984;2023-03-19T11:07:11;13.10;;;7.90;;
54923;SDS011;40825;52.270;20.984;2023-03-19T11:12:20;14.80;;;6.70;;
54923;SDS011;40825;52.270;20.984;2023-03-19T11:14:50;12.10;;;6.30;;
54923;SDS011;40825;52.270;20.984;2023-03-19T11:22:40;12.90;;;6.40;;
54923;SDS011;40825;52.270;20.984;2023-03-19T11:25:25;11.20;;;6.00;;
54923;SDS011;40825;52.270;20.984;2023-03-19T11:27:57;14.00;;;6.90;;
54923;SDS011;40825;52.270;20.984;2023-03-19T11:30:32;13.90;;;6.30;;
54923;SDS011;40825;52.270;20.984;2023-03-19T11:33:13;12.10;;;6.30;;
54923;SDS011;40825;52.270;20.984;2023-03-19T11:39:05;11.10;;;6.30;;
54923;SDS011;40825;52.270;20.984;2023-03-19T11:41:45;11.50;;;6.60;;
54923;SDS011;40825;52.270;20.984;2023-03-19T11:56:13;13.00;;;7.30;;
54923;SDS011;40825;52.270;20.984;2023-03-19T11:58:43;12.30;;;6.90;;
54923;SDS011;40825;52.270;20.984;2023-03-19T12:01:23;11.70;;;6.20;;
54923;SDS011;40825;52.270;20.984;2023-03-19T12:04:04;12.00;;;5.40;;
54923;SDS011;40825;52.270;20.984;2023-03-19T12:06:38;12.20;;;5.90;;
54923;SDS011;40825;52.270;20.984;2023-03-19T12:17:28;10.40;;;5.50;;
54923;SDS011;40825;52.270;20.984;2023-03-19T12:20:29;10.70;;;5.70;;
54923;SDS011;40825;52.270;20.984;2023-03-19T12:26:04;13.20;;;6.70;;
54923;SDS011;40825;52.270;20.984;2023-03-19T12:28:34;11.00;;;5.70;;
54923;SDS011;40825;52.270;20.984;2023-03-19T12:42:45;13.10;;;5.60;;
54923;SDS011;40825;52.270;20.984;2023-03-19T12:45:32;11.70;;;5.50;;
54923;SDS011;40825;52.270;20.984;2023-03-19T12:50:49;10.80;;;5.50;;
54923;SDS011;40825;52.270;20.984;2023-03-19T12:53:24;10.90;;;5.50;;
54923;SDS011;40825;52.270;20.984;2023-03-19T12:57:01;11.60;;;5.40;;
54923;SDS011;40825;52.270;20.984;2023-03-19T13:01:50;11.90;;;5.70;;
54923;SDS011;40825;52.270;20.984;2023-03-19T13:04:24;12.70;;;6.00;;
54923;SDS011;40825;52.270;20.984;2023-03-19T13:12:39;10.60;;;5.60;;
54923;SDS011;40825;52.270;20.984;2023-03-19T13:20:38;11.20;;;5.70;;
54923;SDS011;40825;52.270;20.984;2023-03-19T13:23:37;11.20;;;5.60;;
54923;SDS011;40825;52.270;20.984;2023-03-19T13:26:03;9.80;;;4.40;;
54923;SDS011;40825;52.270;20.984;2023-03-19T13:28:34;11.70;;;5.90;;
54923;SDS011;40825;52.270;20.984;2023-03-19T13:33:29;9.80;;;4.90;;
54923;SDS011;40825;52.270;20.984;2023-03-19T13:35:56;11.10;;;5.70;;
54923;SDS011;40825;52.270;20.984;2023-03-19T13:41:03;11.60;;;5.90;;
54923;SDS011;40825;52.270;20.984;2023-03-19T13:48:37;11.00;;;5.50;;
54923;SDS011;40825;52.270;20.984;2023-03-19T13:53:41;10.90;;;5.70;;
54923;SDS011;40825;52.270;20.984;2023-03-19T13:56:17;11.60;;;5.40;;
54923;SDS011;40825;52.270;20.984;2023-03-19T13:58:45;10.70;;;5.40;;
54923;SDS011;40825;52.270;20.984;2023-03-19T14:03:52;12.70;;;5.80;;
54923;SDS011;40825;52.270;20.984;2023-03-19T14:06:33;11.30;;;5.70;;
54923;SDS011;40825;52.270;20.984;2023-03-19T14:09:03;10.90;;;5.40;;
54923;SDS011;40825;52.270;20.984;2023-03-19T14:11:32;12.80;;;6.90;;
54923;SDS011;40825;52.270;20.984;2023-03-19T14:14:04;10.60;;;5.00;;
54923;SDS011;40825;52.270;20.984;2023-03-19T14:16:40;11.10;;;5.20;;
54923;SDS011;40825;52.270;20.984;2023-03-19T14:19:11;11.50;;;5.50;;
54923;SDS011;40825;52.270;20.984;2023-03-19T14:24:33;10.80;;;5.60;;
54923;SDS011;40825;52.270;20.984;2023-03-19T14:27:49;14.70;;;5.50;;
54923;SDS011;40825;52.270;20.984;2023-03-19T14:29:54;15.50;;;5.70;;
54923;SDS011;40825;52.270;20.984;2023-03-19T14:32:23;13.40;;;6.00;;
54923;SDS011;40825;52.270;20.984;2023-03-19T14:34:58;10.40;;;5.20;;
54923;SDS011;40825;52.270;20.984;2023-03-19T14:37:30;12.30;;;6.30;;
54923;SDS011;40825;52.270;20.984;2023-03-19T14:42:39;11.00;;;5.30;;
54923;SDS011;40825;52.270;20.984;2023-03-19T14:58:56;12.80;;;6.10;;
54923;SDS011;40825;52.270;20.984;2023-03-19T15:01:25;10.00;;;4.60;;
54923;SDS011;40825;52.270;20.984;2023-03-19T15:04:13;10.50;;;5.30;;
54923;SDS011;40825;52.270;20.984;2023-03-19T15:06:40;11.50;;;5.30;;
54923;SDS011;40825;52.270;20.984;2023-03-19T15:09:28;11.40;;;5.00;;
54923;SDS011;40825;52.270;20.984;2023-03-19T15:17:24;11.20;;;5.20;;
54923;SDS011;40825;52.270;20.984;2023-03-19T15:19:54;12.00;;;5.60;;
54923;SDS011;40825;52.270;20.984;2023-03-19T15:22:29;12.50;;;6.40;;
54923;SDS011;40825;52.270;20.984;2023-03-19T15:25:30;12.00;;;5.40;;
54923;SDS011;40825;52.270;20.984;2023-03-19T15:28:04;10.20;;;5.30;;
54923;SDS011;40825;52.270;20.984;2023-03-19T15:30:35;12.20;;;5.60;;
54923;SDS011;40825;52.270;20.984;2023-03-19T15:33:01;10.00;;;5.00;;
54923;SDS011;40825;52.270;20.984;2023-03-19T15:35:28;11.40;;;5.20;;
54923;SDS011;40825;52.270;20.984;2023-03-19T15:37:58;11.30;;;5.50;;
54923;SDS011;40825;52.270;20.984;2023-03-19T15:40:26;11.10;;;5.20;;
54923;SDS011;40825;52.270;20.984;2023-03-19T15:42:55;11.20;;;5.30;;
54923;SDS011;40825;52.270;20.984;2023-03-19T15:45:24;10.60;;;5.70;;
54923;SDS011;40825;52.270;20.984;2023-03-19T15:50:22;11.10;;;6.20;;
54923;SDS011;40825;52.270;20.984;2023-03-19T15:52:59;10.30;;;5.20;;
54923;SDS011;40825;52.270;20.984;2023-03-19T15:55:27;10.60;;;5.10;;
54923;SDS011;40825;52.270;20.984;2023-03-19T15:57:54;10.10;;;5.10;;
54923;SDS011;40825;52.270;20.984;2023-03-19T16:00:21;11.70;;;5.50;;
54923;SDS011;40825;52.270;20.984;2023-03-19T16:02:49;9.40;;;5.10;;
54923;SDS011;40825;52.270;20.984;2023-03-19T16:07:53;11.70;;;5.20;;
54923;SDS011;40825;52.270;20.984;2023-03-19T16:12:53;11.30;;;5.20;;
54923;SDS011;40825;52.270;20.984;2023-03-19T16:15:20;10.30;;;5.30;;
54923;SDS011;40825;52.270;20.984;2023-03-19T16:17:54;10.20;;;5.50;;
54923;SDS011;40825;52.270;20.984;2023-03-19T16:20:21;10.90;;;5.30;;
54923;SDS011;40825;52.270;20.984;2023-03-19T16:22:50;11.40;;;5.60;;
54923;SDS011;40825;52.270;20.984;2023-03-19T16:25:19;11.30;;;5.80;;
54923;SDS011;40825;52.270;20.984;2023-03-19T16:27:49;10.80;;;5.00;;
54923;SDS011;40825;52.270;20.984;2023-03-19T16:32:59;13.10;;;5.70;;
54923;SDS011;40825;52.270;20.984;2023-03-19T16:35:27;10.80;;;5.30;;
54923;SDS011;40825;52.270;20.984;2023-03-19T16:43:15;12.70;;;5.40;;
54923;SDS011;40825;52.270;20.984;2023-03-19T16:45:43;13.10;;;6.00;;
54923;SDS011;40825;52.270;20.984;2023-03-19T16:48:13;11.30;;;6.10;;
54923;SDS011;40825;52.270;20.984;2023-03-19T16:50:39;15.60;;;5.80;;
54923;SDS011;40825;52.270;20.984;2023-03-19T16:53:40;10.30;;;5.20;;
54923;SDS011;40825;52.270;20.984;2023-03-19T16:56:00;12.90;;;6.50;;
54923;SDS011;40825;52.270;20.984;2023-03-19T16:58:28;16.10;;;7.30;;